Time;durP1;ratioP1;P1;durP2;ratioP2;P2;SDS_P1;SDS_P2;PMS_P1;PMS_P2;Temp;Humidity;BMP_temperature;BMP_pressure;BME280_temperature;BME280_humidity;BME280_pressure;Samples;Min_cycle;Max_cycle;Signal;HPM_P1;HPM_P2
2023/03/27 00:01:22;;;;;;;1.30;0.82;;;;;;;20.10;35.49;101388.19;5040573;28;20067;-69
2023/03/27 00:03:49;;;;;;;2.60;1.15;;;;;;;20.09;35.50;101391.81;5037541;28;20041;-69
2023/03/27 00:06:17;;;;;;;2.63;1.33;;;;;;;20.04;35.82;101399.44;5052779;28;20123;-68
2023/03/27 00:08:45;;;;;;;2.08;0.63;;;;;;;20.05;35.43;101387.88;5042152;28;21015;-67
2023/03/27 00:11:10;;;;;;;2.40;1.33;;;;;;;19.97;35.58;101392.34;5049815;28;20033;-67
2023/03/27 00:13:37;;;;;;;1.88;0.85;;;;;;;20.08;35.42;101399.91;5016542;28;20506;-69
2023/03/27 00:16:04;;;;;;;2.53;1.27;;;;;;;20.03;35.49;101397.78;5036512;28;20037;-69
2023/03/27 00:18:32;;;;;;;2.55;1.08;;;;;;;20.07;35.46;101403.56;5038924;28;20730;-67
2023/03/27 00:20:59;;;;;;;3.10;1.02;;;;;;;20.03;35.54;101402.25;5041793;28;20034;-69
2023/03/27 00:23:28;;;;;;;3.28;1.17;;;;;;;19.95;35.62;101399.63;5044500;28;20151;-68
2023/03/27 00:25:56;;;;;;;1.35;1.10;;;;;;;19.98;35.56;101404.56;5043607;28;20132;-68
2023/03/27 00:28:25;;;;;;;1.05;0.88;;;;;;;20.00;35.38;101405.22;5048077;28;20029;-68
2023/03/27 00:30:52;;;;;;;1.50;0.77;;;;;;;19.90;35.72;101406.22;5023426;28;20207;-67
2023/03/27 00:33:17;;;;;;;0.95;0.70;;;;;;;20.00;35.40;101407.88;5037600;28;20042;-68
2023/03/27 00:35:45;;;;;;;1.58;0.70;;;;;;;19.94;35.54;101419.94;5033848;28;20045;-66
2023/03/27 00:38:11;;;;;;;2.10;0.80;;;;;;;19.87;35.65;101416.28;5040068;28;20402;-67
2023/03/27 00:40:38;;;;;;;1.23;0.82;;;;;;;19.88;35.68;101415.31;5036288;28;20429;-67
2023/03/27 00:43:25;;;;;;;2.15;1.20;;;;;;;19.95;35.57;101416.31;5039284;28;20818;-67
2023/03/27 00:45:55;;;;;;;3.17;1.00;;;;;;;19.94;35.63;101412.00;5027255;28;20037;-68
2023/03/27 00:48:23;;;;;;;1.48;0.65;;;;;;;19.88;35.60;101421.41;5026105;28;20029;-69
2023/03/27 00:50:50;;;;;;;2.17;0.90;;;;;;;19.99;35.52;101416.78;5033248;28;20056;-69
2023/03/27 00:53:21;;;;;;;2.10;0.90;;;;;;;19.91;35.67;101429.00;5038489;28;20195;-69
2023/03/27 00:55:51;;;;;;;1.20;0.88;;;;;;;19.94;35.57;101427.88;5036796;28;20029;-67
2023/03/27 00:58:19;;;;;;;;;;;;;;;19.90;35.64;101434.47;5035056;28;20033;-68
2023/03/27 01:00:48;;;;;;;0.73;0.73;;;;;;;19.98;35.47;101436.28;5043840;28;20020;-68
2023/03/27 01:03:15;;;;;;;0.82;0.80;;;;;;;19.88;35.67;101437.28;5010475;28;20048;-69
2023/03/27 01:05:42;;;;;;;1.95;0.73;;;;;;;19.94;35.51;101438.44;5030533;28;20068;-68
2023/03/27 01:08:10;;;;;;;2.03;1.00;;;;;;;19.92;35.60;101435.13;5051294;28;20060;-69
2023/03/27 01:10:44;;;;;;;1.55;0.98;;;;;;;19.93;35.55;101442.09;5029695;28;20080;-67
2023/03/27 01:13:10;;;;;;;1.50;0.95;;;;;;;19.97;35.57;101448.69;5037130;28;20102;-69
2023/03/27 01:15:55;;;;;;;1.38;0.60;;;;;;;20.02;35.45;101451.66;5034036;28;20143;-67
2023/03/27 01:18:30;;;;;;;1.65;0.80;;;;;;;19.95;35.58;101450.66;5023428;28;20045;-69
2023/03/27 01:21:04;;;;;;;1.90;0.90;;;;;;;20.01;35.38;101441.25;5035265;28;20123;-68
2023/03/27 01:23:36;;;;;;;1.33;0.90;;;;;;;20.02;35.53;101453.47;5036222;28;20037;-68
2023/03/27 01:26:23;;;;;;;0.77;0.50;;;;;;;19.95;35.51;101448.03;5036813;28;20609;-68
2023/03/27 01:29:08;;;;;;;3.20;0.82;;;;;;;19.96;35.53;101462.06;5046840;28;20747;-69
2023/03/27 01:32:18;;;;;;;1.48;0.70;;;;;;;19.92;35.58;101453.63;5035974;28;20363;-69
2023/03/27 01:34:56;;;;;;;1.63;0.88;;;;;;;19.88;35.62;101455.78;5021549;28;20497;-67
2023/03/27 01:37:31;;;;;;;1.77;0.77;;;;;;;19.92;35.59;101454.44;5022554;28;20042;-69
2023/03/27 01:40:15;;;;;;;1.15;0.80;;;;;;;19.97;35.35;101458.44;5036174;28;20021;-69
2023/03/27 01:42:49;;;;;;;1.55;0.70;;;;;;;19.90;35.58;101461.72;5033719;28;20037;-67
2023/03/27 01:45:56;;;;;;;0.47;0.47;;;;;;;19.85;35.67;101460.56;5044015;28;20036;-69
2023/03/27 01:48:35;;;;;;;1.38;0.70;;;;;;;19.85;35.56;101461.41;5033591;28;20411;-67
2023/03/27 01:51:18;;;;;;;1.27;0.70;;;;;;;19.78;35.74;101465.69;5024288;28;20034;-67
2023/03/27 01:53:51;;;;;;;0.47;0.47;;;;;;;19.83;35.70;101471.31;5028599;28;20041;-67
2023/03/27 01:56:26;;;;;;;2.40;0.98;;;;;;;19.84;35.64;101472.13;5034472;28;20152;-67
2023/03/27 01:59:02;;;;;;;1.23;0.73;;;;;;;19.76;35.64;101461.56;5039274;28;20025;-69
2023/03/27 02:01:38;;;;;;;3.25;0.75;;;;;;;19.86;35.59;101473.63;5034071;28;20475;-68
2023/03/27 02:04:08;;;;;;;1.75;0.45;;;;;;;19.82;35.65;101474.94;5043381;28;20170;-67
2023/03/27 02:06:40;;;;;;;2.38;0.98;;;;;;;19.76;35.72;101467.69;5045126;28;20029;-67
2023/03/27 02:09:19;;;;;;;1.33;0.63;;;;;;;19.71;35.78;101471.78;5022626;28;20361;-69
2023/03/27 02:12:01;;;;;;;1.17;0.60;;;;;;;19.75;35.72;101463.38;5041656;28;20133;-69
2023/03/27 02:14:37;;;;;;;1.42;0.50;;;;;;;19.69;35.87;101468.47;5068003;28;20491;-68
2023/03/27 02:17:09;;;;;;;0.93;0.63;;;;;;;19.74;35.83;101479.38;5042997;28;20864;-69
2023/03/27 02:19:46;;;;;;;1.85;0.98;;;;;;;19.70;35.66;101462.19;5039013;28;20335;-67
2023/03/27 02:22:14;;;;;;;1.90;1.20;;;;;;;19.86;35.47;101484.19;5051478;28;20040;-68
2023/03/27 02:24:47;;;;;;;1.45;0.65;;;;;;;19.80;35.59;101484.03;5019789;28;20053;-69
2023/03/27 02:27:25;;;;;;;1.52;0.75;;;;;;;19.75;35.84;101481.88;5043055;28;20123;-69
2023/03/27 02:30:03;;;;;;;1.38;0.60;;;;;;;19.75;35.75;101484.53;5044215;28;20036;-69
2023/03/27 02:32:58;;;;;;;0.80;0.60;;;;;;;19.76;35.56;101496.75;5042057;28;20384;-68
2023/03/27 02:35:45;;;;;;;1.20;0.57;;;;;;;19.70;35.75;101496.56;5053483;28;20055;-68
2023/03/27 02:38:45;;;;;;;0.65;0.50;;;;;;;19.74;35.77;101505.81;5045288;28;20037;-68
2023/03/27 02:41:30;;;;;;;;;;;;;;;19.79;35.73;101503.53;5027693;28;20087;-69
2023/03/27 02:44:43;;;;;;;1.80;0.73;;;;;;;19.68;35.80;101506.47;5031962;28;19955;-68
2023/03/27 02:47:11;;;;;;;0.77;0.50;;;;;;;19.71;35.79;101514.06;5042658;28;20038;-69
2023/03/27 02:49:45;;;;;;;2.17;0.95;;;;;;;19.73;35.66;101518.19;5036822;28;20104;-69
2023/03/27 02:52:38;;;;;;;0.88;0.47;;;;;;;19.68;35.80;101524.94;5040522;28;20100;-69
2023/03/27 02:55:28;;;;;;;0.95;0.50;;;;;;;19.68;35.80;101519.66;5073144;28;20029;-69
2023/03/27 02:57:59;;;;;;;2.05;0.85;;;;;;;19.68;35.71;101522.31;4993793;28;20053;-68
2023/03/27 03:00:42;;;;;;;1.48;0.70;;;;;;;19.66;35.56;101519.84;5041392;28;20029;-69
2023/03/27 03:03:26;;;;;;;1.40;0.80;;;;;;;19.61;35.80;101517.69;5042479;28;20075;-69
2023/03/27 03:05:57;;;;;;;1.65;0.68;;;;;;;19.61;35.83;101514.22;5044679;28;20033;-69
2023/03/27 03:08:24;;;;;;;0.68;0.50;;;;;;;19.67;35.72;101521.47;5039137;28;20102;-69
2023/03/27 03:10:49;;;;;;;2.08;0.75;;;;;;;19.65;35.80;101522.63;5039471;28;20035;-69
2023/03/27 03:13:16;;;;;;;0.88;0.50;;;;;;;19.58;35.90;101520.66;5027279;28;20379;-69
2023/03/27 03:15:44;;;;;;;1.45;0.68;;;;;;;19.65;35.81;101527.94;5024163;28;20065;-69
2023/03/27 03:18:11;;;;;;;2.45;0.75;;;;;;;19.63;35.83;101533.38;5036294;28;21396;-67
2023/03/27 03:20:38;;;;;;;1.35;0.55;;;;;;;19.67;35.58;101525.94;5038659;28;20049;-67
2023/03/27 03:23:05;;;;;;;1.38;0.55;;;;;;;19.76;35.60;101525.81;5043300;28;20037;-69
2023/03/27 03:25:31;;;;;;;0.80;0.43;;;;;;;19.78;35.49;101531.75;5052962;28;20057;-67
2023/03/27 03:28:00;;;;;;;1.00;0.50;;;;;;;20.19;34.85;101532.63;5040149;28;20085;-68
2023/03/27 03:30:29;;;;;;;2.97;0.90;;;;;;;20.41;34.36;101540.91;5027405;28;20037;-68
2023/03/27 03:33:00;;;;;;;0.85;0.50;;;;;;;20.44;34.32;101546.69;5068252;28;20104;-68
2023/03/27 03:35:27;;;;;;;0.95;0.63;;;;;;;20.41;34.49;101540.91;5073447;28;20184;-69
2023/03/27 03:37:53;;;;;;;0.95;0.65;;;;;;;20.43;34.47;101542.41;5035113;28;20129;-69
2023/03/27 03:40:20;;;;;;;1.52;0.70;;;;;;;20.36;34.51;101540.56;5039808;28;20107;-69
2023/03/27 03:42:49;;;;;;;1.45;0.70;;;;;;;20.37;34.80;101550.97;5036014;28;20040;-69
2023/03/27 03:45:18;;;;;;;1.10;0.80;;;;;;;20.36;34.42;101559.06;5037856;28;20034;-67
2023/03/27 03:47:44;;;;;;;1.50;0.73;;;;;;;20.33;34.68;101562.06;5013008;28;20160;-68
2023/03/27 03:50:11;;;;;;;1.42;0.85;;;;;;;20.33;34.68;101559.41;5035678;28;20040;-69
2023/03/27 03:52:38;;;;;;;1.75;0.70;;;;;;;20.25;34.71;101564.69;5041527;28;20041;-69
2023/03/27 03:55:04;;;;;;;0.80;0.50;;;;;;;20.20;34.68;101567.81;5050705;28;20037;-69
2023/03/27 03:57:30;;;;;;;2.03;0.80;;;;;;;20.18;34.82;101569.81;5036549;28;20130;-69
2023/03/27 04:00:07;;;;;;;1.80;0.90;;;;;;;20.27;34.81;101560.06;5042761;28;20529;-69
2023/03/27 04:02:54;;;;;;;0.73;0.52;;;;;;;20.07;35.02;101557.72;5033057;28;20056;-67
2023/03/27 04:05:21;;;;;;;1.70;0.70;;;;;;;20.18;35.01;101565.34;5028519;28;20541;-69
2023/03/27 04:07:50;;;;;;;1.65;0.85;;;;;;;20.05;35.19;101565.00;5046364;28;21888;-69
2023/03/27 04:10:22;;;;;;;1.73;0.80;;;;;;;19.95;35.36;101574.09;5065509;28;20071;-69
2023/03/27 04:12:49;;;;;;;3.53;1.38;;;;;;;20.00;35.08;101569.97;5072179;28;20083;-68
2023/03/27 04:15:23;;;;;;;1.83;0.60;;;;;;;19.96;35.34;101576.56;5036778;28;20033;-68
2023/03/27 04:18:06;;;;;;;1.02;0.57;;;;;;;19.95;35.43;101596.06;5045893;28;20052;-68
2023/03/27 04:20:33;;;;;;;1.35;0.40;;;;;;;19.92;35.33;101599.00;5014267;28;20056;-67
2023/03/27 04:23:01;;;;;;;0.45;0.40;;;;;;;19.91;35.44;101616.69;5042481;28;20045;-68
2023/03/27 04:25:28;;;;;;;1.88;0.95;;;;;;;19.88;35.55;101610.91;5023841;28;20107;-69
2023/03/27 04:27:53;;;;;;;1.80;1.35;;;;;;;19.86;35.51;101618.16;5042544;28;20041;-68
2023/03/27 04:30:24;;;;;;;1.98;0.88;;;;;;;19.86;35.37;101611.06;5044657;28;20018;-69
2023/03/27 04:33:27;;;;;;;0.65;0.65;;;;;;;19.90;35.36;101615.03;5041229;28;20048;-68
2023/03/27 04:36:15;;;;;;;2.70;1.05;;;;;;;19.87;35.38;101622.47;5011991;28;20126;-68
2023/03/27 04:38:48;;;;;;;1.25;0.45;;;;;;;19.90;35.38;101616.84;5036381;28;20036;-68
2023/03/27 04:41:16;;;;;;;1.75;0.60;;;;;;;19.78;35.57;101610.22;5032868;28;20674;-68
2023/03/27 04:43:42;;;;;;;1.90;0.70;;;;;;;19.84;35.31;101625.41;5038726;28;20045;-69
2023/03/27 04:46:07;;;;;;;1.23;0.77;;;;;;;19.71;35.83;101625.88;5038603;28;20033;-68
2023/03/27 04:48:36;;;;;;;1.05;0.60;;;;;;;19.75;35.67;101626.38;5041161;28;20056;-68
2023/03/27 04:51:11;;;;;;;0.73;0.70;;;;;;;19.69;35.72;101622.56;5027194;28;20093;-68
2023/03/27 04:53:37;;;;;;;2.75;0.90;;;;;;;19.73;35.57;101625.69;5040679;28;20061;-68
2023/03/27 04:56:05;;;;;;;0.57;0.52;;;;;;;19.72;35.73;101631.97;5038358;28;20391;-67
2023/03/27 04:58:34;;;;;;;;;;;;;;;19.78;35.52;101634.00;5036145;28;20171;-68
2023/03/27 05:01:06;;;;;;;1.45;0.77;;;;;;;19.71;35.66;101646.19;5038065;28;19960;-69
2023/03/27 05:04:02;;;;;;;1.15;0.77;;;;;;;19.75;35.64;101644.88;5032091;28;20092;-69
2023/03/27 05:06:46;;;;;;;1.35;0.77;;;;;;;19.67;35.71;101655.41;5036503;28;20063;-67
2023/03/27 05:09:14;;;;;;;0.93;0.63;;;;;;;19.72;35.74;101653.94;5014231;28;20857;-69
2023/03/27 05:11:40;;;;;;;2.75;1.13;;;;;;;19.69;35.63;101659.56;5041184;28;20041;-69
2023/03/27 05:14:07;;;;;;;2.95;0.88;;;;;;;19.68;35.78;101659.72;5034498;28;20033;-69
2023/03/27 05:16:35;;;;;;;1.38;0.90;;;;;;;19.67;35.70;101663.34;5041845;28;20056;-69
2023/03/27 05:19:03;;;;;;;1.98;0.75;;;;;;;19.61;35.63;101663.00;5043069;28;20042;-69
2023/03/27 05:21:37;;;;;;;0.98;0.65;;;;;;;19.60;35.72;101671.91;5035358;28;20045;-69
2023/03/27 05:24:06;;;;;;;0.68;0.57;;;;;;;19.58;35.78;101673.06;5007111;28;20063;-69
2023/03/27 05:26:32;;;;;;;0.73;0.73;;;;;;;19.59;35.85;101666.78;5031124;28;20065;-69
2023/03/27 05:28:58;;;;;;;1.75;0.80;;;;;;;19.51;35.97;101664.06;5035972;28;20049;-69
2023/03/27 05:31:26;;;;;;;0.90;0.70;;;;;;;19.58;35.68;101665.97;5037417;28;20029;-69
2023/03/27 05:34:14;;;;;;;1.98;0.70;;;;;;;19.63;35.63;101668.13;5048987;28;20033;-69
2023/03/27 05:36:42;;;;;;;2.00;0.93;;;;;;;19.60;35.67;101666.63;5035564;28;20042;-69
2023/03/27 05:39:08;;;;;;;0.73;0.52;;;;;;;19.67;35.61;101679.19;5025230;28;20037;-69
2023/03/27 05:41:40;;;;;;;1.38;0.90;;;;;;;19.62;35.62;101679.69;5018391;28;20041;-69
2023/03/27 05:44:06;;;;;;;1.48;0.70;;;;;;;19.72;35.46;101683.00;5033176;28;20048;-69
2023/03/27 05:46:39;;;;;;;2.20;0.90;;;;;;;19.63;35.50;101681.34;5037570;28;20434;-69
2023/03/27 05:49:11;;;;;;;1.20;0.70;;;;;;;19.65;35.52;101691.75;5050094;28;20029;-67
2023/03/27 05:51:39;;;;;;;0.90;0.63;;;;;;;19.63;35.56;101701.63;5034287;28;20066;-69
2023/03/27 05:54:06;;;;;;;1.25;0.70;;;;;;;19.64;35.41;101704.13;5037721;28;20568;-69
2023/03/27 05:56:40;;;;;;;1.75;0.82;;;;;;;19.69;35.39;101715.03;5012568;28;20040;-68
2023/03/27 05:59:05;;;;;;;1.08;0.70;;;;;;;19.55;35.43;101697.94;5042341;28;20655;-67
2023/03/27 06:01:34;;;;;;;2.00;0.80;;;;;;;19.65;35.43;101716.34;5043660;28;20148;-68
2023/03/27 06:04:01;;;;;;;1.13;0.65;;;;;;;19.66;35.53;101715.38;5046272;28;20041;-69
2023/03/27 06:06:48;;;;;;;2.60;0.90;;;;;;;19.88;34.82;101703.41;5048582;28;20148;-68
2023/03/27 06:09:14;;;;;;;0.77;0.52;;;;;;;20.39;34.21;101726.22;5049965;28;20029;-68
2023/03/27 06:11:48;;;;;;;0.77;0.57;;;;;;;20.64;33.92;101728.94;5019075;28;26220;-68
2023/03/27 06:14:13;;;;;;;0.57;0.47;;;;;;;20.98;33.59;101728.81;5046458;28;20038;-68
2023/03/27 06:17:00;;;;;;;1.85;0.98;;;;;;;21.10;33.29;101724.84;5044623;28;20048;-67
2023/03/27 06:19:48;;;;;;;0.70;0.47;;;;;;;21.01;33.51;101731.16;5025684;28;20557;-68
2023/03/27 06:22:14;;;;;;;1.65;0.85;;;;;;;20.97;33.60;101727.16;5020503;28;20035;-69
2023/03/27 06:24:39;;;;;;;0.95;0.52;;;;;;;20.89;33.76;101729.81;5045048;28;20054;-68
2023/03/27 06:27:05;;;;;;;1.88;0.70;;;;;;;20.84;33.72;101734.78;5048218;28;20037;-68
2023/03/27 06:29:36;;;;;;;1.42;0.50;;;;;;;20.80;33.98;101742.19;5028192;28;20038;-69
2023/03/27 06:32:03;;;;;;;1.33;0.55;;;;;;;20.77;33.92;101742.53;5038100;28;20129;-69
2023/03/27 06:34:33;;;;;;;0.70;0.57;;;;;;;20.73;34.25;101747.34;5027961;28;20098;-69
2023/03/27 06:37:05;;;;;;;0.73;0.40;;;;;;;20.69;34.18;101734.59;5043026;28;20049;-69
2023/03/27 06:39:37;;;;;;;2.38;0.60;;;;;;;20.71;34.21;101745.84;5056412;28;20132;-68
2023/03/27 06:42:03;;;;;;;0.50;0.50;;;;;;;20.70;34.26;101749.47;5038442;28;20032;-69
2023/03/27 06:44:55;;;;;;;1.55;0.45;;;;;;;20.78;34.03;101757.41;5024573;28;20056;-69
2023/03/27 06:48:04;;;;;;;1.85;0.75;;;;;;;21.17;33.73;101757.59;5038878;28;20056;-69
2023/03/27 06:50:41;;;;;;;1.60;0.43;;;;;;;21.38;33.19;101751.84;5033365;28;20033;-69
2023/03/27 06:53:07;;;;;;;0.63;0.30;;;;;;;21.38;33.10;101751.84;5035874;28;20025;-67
2023/03/27 06:55:38;;;;;;;0.95;0.57;;;;;;;21.27;33.49;101758.31;5037834;28;20067;-68
2023/03/27 06:58:05;;;;;;;0.65;0.50;;;;;;;21.19;33.44;101755.66;5038683;28;20037;-69
2023/03/27 07:00:34;;;;;;;0.93;0.43;;;;;;;21.20;33.46;101765.25;5039753;28;20044;-69
2023/03/27 07:03:12;;;;;;;1.83;0.75;;;;;;;21.13;33.59;101770.34;5017451;28;20045;-67
2023/03/27 07:06:07;;;;;;;0.68;0.40;;;;;;;21.11;33.83;101775.00;5018352;28;20045;-67
2023/03/27 07:08:41;;;;;;;0.50;0.50;;;;;;;21.06;33.86;101785.25;5036163;28;20075;-68
2023/03/27 07:11:07;;;;;;;0.98;0.60;;;;;;;21.03;34.02;101780.31;5039451;28;20028;-67
2023/03/27 07:13:34;;;;;;;0.90;0.55;;;;;;;21.03;33.80;101782.94;5045076;28;20047;-68
2023/03/27 07:16:04;;;;;;;0.90;0.35;;;;;;;21.02;34.08;101785.75;5040194;28;20051;-68
2023/03/27 07:18:31;;;;;;;0.75;0.40;;;;;;;21.01;34.05;101789.41;5027023;28;20045;-68
2023/03/27 07:20:57;;;;;;;0.98;0.35;;;;;;;21.02;33.90;101791.88;5034379;28;20119;-66
2023/03/27 07:23:23;;;;;;;0.77;0.32;;;;;;;20.99;33.91;101797.47;5034621;28;20373;-68
2023/03/27 07:26:01;;;;;;;1.50;0.70;;;;;;;21.00;33.79;101795.66;5039818;28;20076;-67
2023/03/27 07:28:50;;;;;;;1.83;0.70;;;;;;;21.01;33.89;101798.19;5042091;28;20438;-66
2023/03/27 07:31:17;;;;;;;1.58;0.68;;;;;;;21.01;34.13;101797.34;5039666;28;20074;-68
2023/03/27 07:33:43;;;;;;;0.70;0.57;;;;;;;20.95;34.02;101800.63;5034690;28;20037;-68
2023/03/27 07:36:10;;;;;;;0.47;0.47;;;;;;;20.99;33.85;101804.59;5026933;28;20037;-69
2023/03/27 07:38:41;;;;;;;3.45;0.50;;;;;;;20.96;34.13;101807.59;5035013;28;20033;-68
2023/03/27 07:41:17;;;;;;;0.73;0.47;;;;;;;20.95;33.99;101814.69;5037320;28;20414;-69
2023/03/27 07:44:05;;;;;;;1.83;0.60;;;;;;;20.93;33.92;101814.03;5043084;28;20057;-67
2023/03/27 07:46:43;;;;;;;0.93;0.38;;;;;;;20.94;33.89;101807.75;5036934;28;21856;-68
2023/03/27 07:49:09;;;;;;;1.10;0.75;;;;;;;20.88;33.92;101824.28;5041081;28;21529;-69
2023/03/27 07:51:36;;;;;;;1.42;0.50;;;;;;;20.90;33.95;101822.31;5015935;28;20836;-67
2023/03/27 07:54:03;;;;;;;1.73;0.70;;;;;;;20.95;33.79;101816.53;5040294;28;20052;-68
2023/03/27 07:56:36;;;;;;;1.42;0.50;;;;;;;20.93;33.88;101840.50;5038649;28;20072;-68
2023/03/27 07:59:31;;;;;;;1.05;0.45;;;;;;;20.91;33.83;101837.19;5040442;28;20054;-69
2023/03/27 08:02:04;;;;;;;1.48;0.85;;;;;;;20.85;33.75;101835.22;5044652;28;20390;-71
2023/03/27 08:04:33;;;;;;;;;;;;;;;20.88;33.57;101836.72;5040219;28;20111;-68
2023/03/27 08:07:04;;;;;;;1.35;0.70;;;;;;;20.85;33.83;101853.75;5027385;28;19923;-69
2023/03/27 08:09:30;;;;;;;0.65;0.55;;;;;;;20.69;34.18;101833.34;5042311;28;20029;-71
2023/03/27 08:11:56;;;;;;;2.50;0.88;;;;;;;20.78;33.96;101850.06;5036271;28;20037;-69
2023/03/27 08:14:25;;;;;;;2.67;0.80;;;;;;;20.74;33.95;101854.03;5042496;28;20499;-71
2023/03/27 08:16:52;;;;;;;0.38;0.38;;;;;;;20.82;34.13;101848.75;5053109;28;20029;-68
2023/03/27 08:19:22;;;;;;;2.40;0.85;;;;;;;20.79;34.16;101852.56;5033476;28;20045;-69
2023/03/27 08:21:52;;;;;;;1.08;0.45;;;;;;;20.74;34.14;101854.88;5031640;28;20062;-69
2023/03/27 08:24:18;;;;;;;1.23;0.50;;;;;;;20.79;34.09;101854.38;5013150;28;20072;-69
2023/03/27 08:27:02;;;;;;;1.35;0.60;;;;;;;21.09;33.25;101847.66;5040426;28;20064;-69
2023/03/27 08:29:29;;;;;;;2.03;0.77;;;;;;;21.39;32.88;101854.19;5039699;28;20049;-69
2023/03/27 08:31:55;;;;;;;0.68;0.50;;;;;;;21.60;32.64;101861.63;5035684;28;20497;-69
2023/03/27 08:34:21;;;;;;;2.60;0.77;;;;;;;21.65;32.62;101859.31;5043353;28;20032;-69
2023/03/27 08:36:51;;;;;;;1.75;0.95;;;;;;;21.64;32.38;101858.47;5052799;28;20067;-70
2023/03/27 08:39:17;;;;;;;2.17;1.00;;;;;;;21.64;32.38;101858.47;5028318;28;20039;-68
2023/03/27 08:42:05;;;;;;;2.42;0.50;;;;;;;21.64;32.76;101857.66;5035839;28;20044;-68
2023/03/27 08:44:37;;;;;;;1.05;0.57;;;;;;;21.55;32.73;101854.19;5036330;28;20037;-70
2023/03/27 08:47:32;;;;;;;0.98;0.70;;;;;;;21.52;32.63;101858.97;5025950;28;20037;-70
2023/03/27 08:50:34;;;;;;;0.63;0.45;;;;;;;21.47;32.42;101863.94;5033647;28;20033;-68
2023/03/27 08:53:22;;;;;;;1.52;1.17;;;;;;;21.50;33.19;101875.03;5036026;28;20041;-67
2023/03/27 08:55:48;;;;;;;1.83;0.73;;;;;;;21.48;33.05;101866.44;5033813;28;20128;-67
2023/03/27 08:58:23;;;;;;;2.25;0.63;;;;;;;21.49;32.49;101875.22;5043421;28;20052;-67
2023/03/27 09:01:25;;;;;;;2.08;0.90;;;;;;;21.45;32.59;101877.38;5032169;28;20037;-67
2023/03/27 09:03:58;;;;;;;2.10;0.70;;;;;;;21.45;32.48;101887.97;5049025;28;20755;-67
2023/03/27 09:06:42;;;;;;;0.93;0.43;;;;;;;21.40;32.60;101890.28;5037182;28;20040;-67
2023/03/27 09:09:20;;;;;;;1.13;0.65;;;;;;;21.40;32.89;101896.41;5038089;28;20537;-67
2023/03/27 09:12:24;;;;;;;1.80;0.70;;;;;;;21.35;32.64;101895.22;5034966;28;20042;-66
2023/03/27 09:15:14;;;;;;;0.57;0.57;;;;;;;21.30;32.85;101890.44;5015359;28;20084;-67
2023/03/27 09:17:47;;;;;;;2.00;1.00;;;;;;;21.29;32.80;101899.38;5036487;28;21386;-66
2023/03/27 09:20:22;;;;;;;1.35;0.73;;;;;;;21.21;33.12;101894.03;5041785;28;20060;-66
2023/03/27 09:22:56;;;;;;;2.05;0.82;;;;;;;21.20;32.69;101900.34;5043570;28;20097;-66
2023/03/27 09:25:48;;;;;;;1.08;0.85;;;;;;;21.13;33.15;101899.31;5036248;28;20057;-66
2023/03/27 09:28:29;;;;;;;2.38;1.05;;;;;;;21.15;33.10;101899.97;5037263;28;20126;-65
2023/03/27 09:31:31;;;;;;;0.75;0.52;;;;;;;21.10;32.82;101902.28;5034761;28;20064;-65
2023/03/27 09:34:03;;;;;;;1.48;0.98;;;;;;;21.05;32.98;101908.06;5040958;28;20048;-65
2023/03/27 09:36:29;;;;;;;3.25;1.13;;;;;;;21.06;32.91;101903.59;5038614;28;20198;-65
2023/03/27 09:39:06;;;;;;;0.75;0.60;;;;;;;20.94;33.27;101907.53;5041500;28;20041;-66
2023/03/27 09:41:40;;;;;;;3.35;0.60;;;;;;;20.95;33.25;101910.03;5036765;28;20048;-66
2023/03/27 09:44:11;;;;;;;1.85;0.73;;;;;;;20.93;33.35;101908.53;5040599;28;20040;-66
2023/03/27 09:46:47;;;;;;;2.45;0.90;;;;;;;20.88;33.22;101918.78;5039800;28;20048;-65
2023/03/27 09:49:20;;;;;;;1.40;0.40;;;;;;;20.86;33.27;101918.94;5052552;28;20657;-66
2023/03/27 09:51:58;;;;;;;1.52;0.68;;;;;;;20.87;32.98;101922.41;5040971;28;20799;-66
2023/03/27 09:54:51;;;;;;;0.85;0.57;;;;;;;20.74;33.38;101925.50;5033143;28;20048;-65
2023/03/27 09:57:18;;;;;;;3.00;0.80;;;;;;;20.76;33.21;101927.00;5039404;28;21222;-66
2023/03/27 09:59:58;;;;;;;1.08;0.75;;;;;;;20.70;33.36;101926.81;5034419;28;20033;-65
2023/03/27 10:02:27;;;;;;;1.85;0.80;;;;;;;20.55;33.27;101923.94;5044374;28;20037;-66
2023/03/27 10:05:10;;;;;;;1.70;0.90;;;;;;;20.53;33.45;101939.13;5041985;28;20029;-66
2023/03/27 10:07:41;;;;;;;1.63;0.73;;;;;;;20.63;33.01;101929.25;5040749;28;20139;-66
2023/03/27 10:10:33;;;;;;;1.08;0.50;;;;;;;20.48;33.53;101926.38;5031871;28;20107;-66
2023/03/27 10:13:08;;;;;;;2.55;0.65;;;;;;;20.40;33.39;101922.81;5038418;28;20041;-66
2023/03/27 10:15:40;;;;;;;0.88;0.55;;;;;;;20.46;33.50;101927.50;5034677;28;20159;-66
2023/03/27 10:18:28;;;;;;;1.77;0.77;;;;;;;20.47;33.51;101934.47;5037649;28;20114;-67
2023/03/27 10:21:10;;;;;;;1.30;0.90;;;;;;;20.58;33.27;101938.66;5055427;28;20042;-66
2023/03/27 10:23:48;;;;;;;0.75;0.57;;;;;;;20.60;32.99;101945.44;5032767;28;20032;-66
2023/03/27 10:26:36;;;;;;;0.68;0.35;;;;;;;20.59;32.89;101953.53;5039565;28;20076;-66
2023/03/27 10:29:25;;;;;;;0.88;0.40;;;;;;;20.58;33.23;101954.53;5038199;28;20041;-66
2023/03/27 10:31:54;;;;;;;1.85;0.68;;;;;;;20.50;33.30;101950.03;5036293;28;20029;-66
2023/03/27 10:34:50;;;;;;;1.20;0.45;;;;;;;20.45;33.10;101931.97;5036013;28;20057;-66
2023/03/27 10:37:33;;;;;;;0.75;0.47;;;;;;;20.59;33.14;101954.38;5038949;28;20503;-65
2023/03/27 10:40:25;;;;;;;0.88;0.52;;;;;;;21.02;32.14;101953.44;5035189;28;20090;-65
2023/03/27 10:42:58;;;;;;;1.92;0.60;;;;;;;21.34;31.41;101963.28;5033621;28;20159;-66
2023/03/27 10:45:24;;;;;;;2.27;0.77;;;;;;;21.39;31.25;101957.53;5035289;28;20042;-66
2023/03/27 10:47:58;;;;;;;0.93;0.63;;;;;;;21.40;31.48;101962.66;5038488;28;20056;-66
2023/03/27 10:50:32;;;;;;;1.50;0.43;;;;;;;21.35;31.14;101951.69;5066968;28;20090;-66
2023/03/27 10:53:15;;;;;;;3.72;0.50;;;;;;;21.34;31.40;101973.88;5035271;28;20037;-66
2023/03/27 10:56:14;;;;;;;1.75;0.50;;;;;;;21.32;31.24;101964.44;5041723;28;20033;-66
2023/03/27 10:58:48;;;;;;;0.95;0.80;;;;;;;21.26;31.35;101968.59;5036440;28;20029;-66
2023/03/27 11:01:22;;;;;;;1.67;1.00;;;;;;;21.27;31.23;101951.69;5038130;28;20117;-67
2023/03/27 11:04:03;;;;;;;0.47;0.47;;;;;;;21.22;31.30;101966.41;5067597;28;20035;-66
2023/03/27 11:06:40;;;;;;;2.17;1.05;;;;;;;20.92;31.64;101981.84;5053363;28;20038;-67
2023/03/27 11:09:29;;;;;;;2.25;0.65;;;;;;;21.15;31.40;101970.66;5038921;28;20060;-67
2023/03/27 11:12:10;;;;;;;0.65;0.47;;;;;;;21.15;31.52;101963.53;5035091;28;20045;-67
2023/03/27 11:14:55;;;;;;;1.05;0.52;;;;;;;21.08;31.55;101986.38;5034808;28;20064;-67
2023/03/27 11:17:30;;;;;;;1.02;0.77;;;;;;;21.03;31.81;101983.38;5043156;28;20029;-67
2023/03/27 11:20:42;;;;;;;1.10;0.40;;;;;;;21.03;31.54;101980.72;5044667;28;20065;-67
2023/03/27 11:23:31;;;;;;;3.53;0.73;;;;;;;21.00;31.52;101981.84;5040394;28;20045;-68
2023/03/27 11:26:15;;;;;;;1.80;0.40;;;;;;;20.99;31.95;101977.56;5041220;28;20041;-67
2023/03/27 11:28:45;;;;;;;0.75;0.40;;;;;;;20.94;31.71;101984.31;5043178;28;20028;-68
2023/03/27 11:31:17;;;;;;;;;;;;;;;21.02;31.75;101997.63;5050590;28;20033;-67
2023/03/27 11:34:09;;;;;;;1.98;0.55;;;;;;;20.97;31.67;101994.59;5036548;28;20076;-66
2023/03/27 11:36:47;;;;;;;2.00;0.55;;;;;;;20.91;31.76;102001.34;5035996;28;20036;-66
2023/03/27 11:39:30;;;;;;;1.17;0.75;;;;;;;20.93;31.75;102028.50;5037030;28;20052;-67
2023/03/27 11:42:00;;;;;;;1.13;0.60;;;;;;;20.84;31.79;102050.66;5064805;28;20029;-67
2023/03/27 11:44:29;;;;;;;0.75;0.50;;;;;;;20.83;32.03;102056.94;5043007;28;20040;-67
2023/03/27 11:47:23;;;;;;;1.00;0.75;;;;;;;20.81;31.90;102074.75;5033929;28;20041;-67
2023/03/27 11:50:00;;;;;;;0.88;0.40;;;;;;;20.72;32.26;102063.31;5033513;28;20032;-67
2023/03/27 11:52:58;;;;;;;2.05;0.75;;;;;;;20.81;32.09;102049.13;5045521;28;20388;-66
2023/03/27 11:56:14;;;;;;;1.15;0.63;;;;;;;20.68;32.47;102051.38;5035720;28;20081;-67
2023/03/27 11:59:10;;;;;;;1.05;0.75;;;;;;;20.72;32.60;102039.47;5039851;28;20780;-67
2023/03/27 12:01:43;;;;;;;0.73;0.47;;;;;;;20.99;32.01;102032.34;5034569;28;20124;-67
2023/03/27 12:04:48;;;;;;;2.28;0.63;;;;;;;21.12;31.95;102028.25;5046445;28;20143;-67